Aviation Digital Data Service (ADDS)

Output produced by METARs form (0317 UTC 25 May 2015)
found at http://aviationweather.gov/adds/metars/
 
KSBY 242320Z 2500/2524 18008KT P6SM SKC 
     FM251300 22010KT P6SM FEW250